Time;durP1;ratioP1;P1;durP2;ratioP2;P2;SDS_P1;SDS_P2;PMS_P1;PMS_P2;Temp;Humidity;BMP_temperature;BMP_pressure;BME280_temperature;BME280_humidity;BME280_pressure;Samples;Min_cycle;Max_cycle;Signal;HPM_P1;HPM_P2
2022/08/10 00:02:25;;;;;;;4.90;4.23;;;18.10;99.90;;;;;;5041575;28;20442;-75
2022/08/10 00:04:52;;;;;;;4.90;4.30;;;18.00;99.90;;;;;;5043615;28;20489;-76
2022/08/10 00:07:18;;;;;;;5.27;4.17;;;18.00;99.90;;;;;;5049823;28;20504;-73
2022/08/10 00:09:45;;;;;;;5.10;4.60;;;18.00;99.90;;;;;;5055000;28;20496;-74
2022/08/10 00:12:12;;;;;;;8.20;4.30;;;18.10;99.90;;;;;;5052558;28;20443;-77
2022/08/10 00:14:39;;;;;;;4.80;4.40;;;18.00;99.90;;;;;;5052973;28;20461;-75
2022/08/10 00:17:06;;;;;;;6.73;4.07;;;18.00;99.90;;;;;;5052559;28;20442;-74
2022/08/10 00:19:35;;;;;;;4.93;4.47;;;18.00;99.90;;;;;;5045383;28;20501;-75
2022/08/10 00:22:01;;;;;;;4.93;3.97;;;18.00;99.90;;;;;;5056335;28;20494;-76
2022/08/10 00:24:31;;;;;;;9.40;4.30;;;18.10;99.90;;;;;;5059675;28;20497;-75
2022/08/10 00:26:58;;;;;;;4.43;4.03;;;18.00;99.90;;;;;;5050999;28;20429;-74
2022/08/10 00:29:25;;;;;;;5.13;3.93;;;18.10;99.90;;;;;;5054729;28;20441;-74
2022/08/10 00:31:52;;;;;;;6.20;3.50;;;18.10;99.90;;;;;;5055969;28;20477;-77
2022/08/10 00:34:19;;;;;;;4.27;3.83;;;18.00;99.90;;;;;;5058147;28;20548;-75
2022/08/10 00:36:47;;;;;;;6.33;4.93;;;18.00;99.90;;;;;;5050391;28;20492;-77
2022/08/10 00:39:14;;;;;;;4.60;3.87;;;18.00;99.90;;;;;;5045686;28;20556;-75
2022/08/10 00:41:41;;;;;;;3.70;3.40;;;17.90;99.90;;;;;;5047232;28;20452;-74
2022/08/10 00:44:08;;;;;;;4.33;3.93;;;17.90;99.90;;;;;;5042730;28;21879;-76
2022/08/10 00:46:35;;;;;;;6.30;3.93;;;17.90;99.90;;;;;;5054651;28;20942;-77
2022/08/10 00:49:02;;;;;;;5.10;4.17;;;17.90;99.90;;;;;;5053724;28;20441;-76
2022/08/10 00:51:29;;;;;;;6.50;3.87;;;17.90;99.90;;;;;;5044386;28;20449;-74
2022/08/10 00:53:57;;;;;;;4.53;3.80;;;18.00;99.90;;;;;;5045169;28;20473;-74
2022/08/10 00:56:24;;;;;;;4.30;3.90;;;17.90;99.90;;;;;;5051997;28;20461;-75
2022/08/10 00:58:51;;;;;;;4.33;3.93;;;17.90;99.90;;;;;;5056099;28;21061;-77
2022/08/10 01:01:18;;;;;;;4.93;4.53;;;17.80;99.90;;;;;;5047524;28;20445;-77
2022/08/10 01:03:45;;;;;;;5.47;4.03;;;17.80;99.90;;;;;;5049180;28;20545;-76
2022/08/10 01:06:21;;;;;;;4.20;3.80;;;17.80;99.90;;;;;;5048817;28;20548;-74
2022/08/10 01:08:53;;;;;;;4.60;4.00;;;17.80;99.90;;;;;;5048547;28;20470;-75
2022/08/10 01:11:30;;;;;;;8.47;5.00;;;17.80;99.90;;;;;;5054128;28;20438;-77
2022/08/10 01:14:04;;;;;;;6.97;5.40;;;17.60;99.90;;;;;;5053351;28;20484;-74
2022/08/10 01:16:35;;;;;;;3.40;3.10;;;17.70;99.90;;;;;;5054416;28;20445;-75
2022/08/10 01:19:23;;;;;;;5.13;4.30;;;17.70;99.90;;;;;;5052371;28;21002;-78
2022/08/10 01:22:17;;;;;;;5.10;4.50;;;17.70;99.90;;;;;;5042660;28;20927;-76
2022/08/10 01:25:25;;;;;;;4.87;4.47;;;17.60;99.90;;;;;;5045131;28;20944;-76
2022/08/10 01:28:00;;;;;;;7.05;4.90;;;17.60;99.90;;;;;;5045898;28;20545;-74
2022/08/10 01:30:31;;;;;;;7.80;5.97;;;17.60;99.90;;;;;;5051160;28;20753;-76
2022/08/10 01:33:04;;;;;;;9.23;4.80;;;17.50;99.90;;;;;;5059997;28;20544;-75
2022/08/10 01:35:36;;;;;;;5.43;4.90;;;17.40;99.90;;;;;;5065422;28;20457;-75
2022/08/10 01:38:07;;;;;;;5.73;5.23;;;17.40;99.90;;;;;;5050562;28;20510;-75
2022/08/10 01:40:37;;;;;;;5.87;5.27;;;17.40;99.90;;;;;;5046690;28;20494;-76
2022/08/10 01:43:08;;;;;;;5.23;4.73;;;17.30;99.90;;;;;;5049768;28;20548;-76
2022/08/10 01:45:39;;;;;;;6.53;5.87;;;17.30;99.90;;;;;;5048392;28;20541;-76
2022/08/10 01:48:28;;;;;;;5.63;5.03;;;17.30;99.90;;;;;;5055633;28;20512;-75
2022/08/10 01:51:00;;;;;;;5.28;4.78;;;17.30;99.90;;;;;;5040316;28;20202;-75
2022/08/10 01:53:34;;;;;;;5.78;5.13;;;17.20;99.90;;;;;;5041197;28;20308;-73
2022/08/10 01:56:02;;;;;;;4.90;4.50;;;17.20;99.90;;;;;;5049513;28;20202;-74
2022/08/10 01:58:30;;;;;;;4.47;4.07;;;17.20;99.90;;;;;;5046821;28;20221;-76
2022/08/10 02:01:01;;;;;;;6.23;5.63;;;17.20;99.90;;;;;;5053417;28;20532;-76
2022/08/10 02:03:29;;;;;;;5.60;5.10;;;17.10;99.90;;;;;;5046955;28;21002;-75
2022/08/10 02:05:57;;;;;;;5.18;4.38;;;17.10;99.90;;;;;;5042918;28;20497;-75
2022/08/10 02:08:26;;;;;;;8.57;6.57;;;17.10;99.90;;;;;;5050804;28;20236;-75
2022/08/10 02:10:54;;;;;;;5.20;4.57;;;17.10;99.90;;;;;;5039147;28;20289;-76
2022/08/10 02:13:22;;;;;;;6.57;5.57;;;17.00;99.90;;;;;;5053151;28;20307;-75
2022/08/10 02:15:51;;;;;;;5.35;4.85;;;17.00;99.90;;;;;;5046211;28;20664;-75
2022/08/10 02:18:21;;;;;;;8.48;4.55;;;17.10;99.90;;;;;;5053254;28;20201;-76
2022/08/10 02:20:50;;;;;;;5.77;5.10;;;17.00;99.90;;;;;;5044934;28;20734;-75
2022/08/10 02:23:21;;;;;;;7.47;5.43;;;17.00;99.90;;;;;;5042436;28;20473;-75
2022/08/10 02:25:49;;;;;;;5.80;4.90;;;17.00;99.90;;;;;;5053932;28;20224;-74
2022/08/10 02:28:18;;;;;;;5.37;4.50;;;16.90;99.90;;;;;;5052291;28;20657;-74
2022/08/10 02:30:46;;;;;;;6.90;5.60;;;16.90;99.90;;;;;;5051256;28;20524;-76
2022/08/10 02:33:16;;;;;;;7.40;5.93;;;16.90;99.90;;;;;;5044382;28;20556;-75
2022/08/10 02:35:47;;;;;;;5.90;5.40;;;16.80;99.90;;;;;;5043318;28;20460;-75
2022/08/10 02:38:17;;;;;;;6.78;6.07;;;16.80;99.90;;;;;;5049907;28;20540;-76
2022/08/10 02:40:52;;;;;;;6.63;5.97;;;16.80;99.90;;;;;;5040832;28;20217;-76
2022/08/10 02:43:28;;;;;;;6.55;5.78;;;16.70;99.90;;;;;;5041769;28;20243;-74
2022/08/10 02:46:01;;;;;;;7.60;6.60;;;16.70;99.90;;;;;;5038220;28;20295;-75
2022/08/10 02:48:42;;;;;;;6.78;5.45;;;16.60;99.90;;;;;;5044109;28;20207;-77
2022/08/10 02:51:17;;;;;;;7.45;6.05;;;16.60;99.90;;;;;;5052341;28;20204;-73
2022/08/10 02:53:48;;;;;;;8.25;6.10;;;16.50;99.90;;;;;;5052036;28;20255;-74
2022/08/10 02:56:22;;;;;;;6.68;5.78;;;16.50;99.90;;;;;;5043568;28;20200;-76
2022/08/10 02:58:55;;;;;;;7.03;5.90;;;16.50;99.90;;;;;;5046845;28;20258;-76
2022/08/10 03:01:25;;;;;;;8.50;5.95;;;16.50;99.90;;;;;;5041930;28;20217;-76
2022/08/10 03:03:57;;;;;;;8.32;6.25;;;16.40;99.90;;;;;;5049313;28;20227;-73
2022/08/10 03:06:33;;;;;;;7.35;6.65;;;16.40;99.90;;;;;;5053154;28;20280;-75
2022/08/10 03:09:02;;;;;;;6.38;5.50;;;16.40;99.90;;;;;;5053795;28;20205;-74
2022/08/10 03:11:33;;;;;;;6.78;6.07;;;16.30;99.90;;;;;;5044289;28;20208;-75
2022/08/10 03:14:01;;;;;;;8.23;7.43;;;16.30;99.90;;;;;;5047452;28;20252;-71
2022/08/10 03:16:30;;;;;;;8.20;5.95;;;16.30;99.90;;;;;;5043000;28;20686;-75
2022/08/10 03:19:00;;;;;;;7.72;6.55;;;16.30;99.90;;;;;;5049417;28;20691;-75
2022/08/10 03:21:30;;;;;;;7.10;6.40;;;16.20;99.90;;;;;;5040268;28;20299;-75
2022/08/10 03:24:01;;;;;;;6.70;5.72;;;16.20;99.90;;;;;;5058992;28;20226;-75
2022/08/10 03:26:29;;;;;;;7.07;6.38;;;16.10;99.90;;;;;;5065349;28;20629;-75
2022/08/10 03:28:58;;;;;;;9.00;7.40;;;16.10;99.90;;;;;;5052630;28;20741;-73
2022/08/10 03:31:26;;;;;;;9.25;7.15;;;16.10;99.90;;;;;;5040465;28;20650;-73
2022/08/10 03:33:54;;;;;;;7.25;5.35;;;16.00;99.90;;;;;;5043780;28;20223;-72
2022/08/10 03:36:23;;;;;;;6.75;6.05;;;16.00;99.90;;;;;;5041676;28;20729;-76
2022/08/10 03:38:51;;;;;;;9.02;6.30;;;16.00;99.90;;;;;;5038695;28;20654;-75
2022/08/10 03:41:25;;;;;;;8.82;6.30;;;16.00;99.90;;;;;;5051609;28;20310;-76
2022/08/10 03:43:53;;;;;;;7.70;5.95;;;15.90;99.90;;;;;;5051113;28;20223;-75
2022/08/10 03:46:23;;;;;;;6.43;5.75;;;15.90;99.90;;;;;;5048580;28;20205;-77
2022/08/10 03:48:54;;;;;;;6.68;6.07;;;15.80;99.90;;;;;;5043497;28;20730;-77
2022/08/10 03:51:23;;;;;;;5.18;4.57;;;15.80;99.90;;;;;;5044094;28;20284;-74
2022/08/10 03:53:52;;;;;;;6.82;6.13;;;15.80;99.90;;;;;;5049013;28;20215;-75
2022/08/10 03:56:20;;;;;;;10.52;6.05;;;15.80;99.90;;;;;;5044943;28;20218;-76
2022/08/10 03:58:47;;;;;;;9.07;6.47;;;15.80;99.90;;;;;;5053346;28;20202;-75
2022/08/10 04:01:16;;;;;;;11.15;6.63;;;15.80;99.90;;;;;;5049965;28;20298;-74
2022/08/10 04:03:43;;;;;;;6.93;6.22;;;15.80;99.90;;;;;;5036319;28;20306;-73
2022/08/10 04:06:11;;;;;;;11.65;6.35;;;15.80;99.90;;;;;;5051083;28;20294;-75
2022/08/10 04:08:42;;;;;;;8.35;5.60;;;15.80;99.90;;;;;;5052362;28;20579;-75
2022/08/10 04:11:10;;;;;;;8.45;5.88;;;15.80;99.90;;;;;;5044562;28;20228;-75
2022/08/10 04:13:38;;;;;;;9.60;6.50;;;15.80;99.90;;;;;;5047419;28;20737;-75
2022/08/10 04:16:06;;;;;;;5.95;4.90;;;15.90;99.90;;;;;;5048172;28;20268;-76
2022/08/10 04:18:33;;;;;;;6.18;5.55;;;15.90;99.90;;;;;;5047031;28;20263;-75
2022/08/10 04:21:07;;;;;;;7.32;6.63;;;16.00;99.90;;;;;;5035772;28;20220;-75
2022/08/10 04:23:36;;;;;;;6.55;5.75;;;16.00;99.90;;;;;;5043991;28;20266;-75
2022/08/10 04:26:03;;;;;;;8.70;5.43;;;16.10;99.90;;;;;;5043499;28;20204;-76
2022/08/10 04:28:32;;;;;;;6.65;5.10;;;16.10;99.90;;;;;;5042231;28;20255;-74
2022/08/10 04:31:03;;;;;;;8.05;6.03;;;16.20;99.90;;;;;;5043619;28;20550;-73
2022/08/10 04:33:31;;;;;;;8.63;5.50;;;16.20;99.90;;;;;;5045170;28;20243;-76
2022/08/10 04:35:59;;;;;;;12.88;5.93;;;16.30;99.90;;;;;;5049716;28;20204;-75
2022/08/10 04:38:28;;;;;;;9.57;5.25;;;16.40;99.90;;;;;;5040954;28;20207;-73
2022/08/10 04:40:56;;;;;;;11.73;6.90;;;16.50;99.90;;;;;;5044348;28;20655;-75
2022/08/10 04:43:23;;;;;;;5.70;5.03;;;16.60;99.90;;;;;;5044581;28;20307;-75
2022/08/10 04:45:51;;;;;;;9.98;5.53;;;16.70;99.90;;;;;;5040273;28;20202;-77
2022/08/10 04:48:24;;;;;;;8.63;5.57;;;16.90;99.90;;;;;;5045564;28;20201;-76
2022/08/10 04:50:51;;;;;;;6.22;5.50;;;17.00;99.90;;;;;;5047053;28;20448;-76
2022/08/10 04:53:18;;;;;;;6.07;5.47;;;17.10;99.90;;;;;;5050710;28;20241;-77
2022/08/10 04:55:45;;;;;;;7.45;6.65;;;17.20;99.90;;;;;;5048301;28;20444;-74
2022/08/10 04:58:12;;;;;;;6.60;5.70;;;17.40;99.90;;;;;;5040166;28;20251;-75
2022/08/10 05:00:39;;;;;;;8.93;5.93;;;17.50;99.90;;;;;;5051835;28;20301;-75
2022/08/10 05:03:07;;;;;;;5.97;5.40;;;17.80;99.90;;;;;;5040081;28;20469;-76
2022/08/10 05:05:34;;;;;;;6.53;4.50;;;18.60;99.90;;;;;;5053416;28;20490;-77
2022/08/10 05:08:01;;;;;;;4.00;3.70;;;19.50;99.90;;;;;;5050650;28;20438;-77
2022/08/10 05:10:28;;;;;;;4.40;3.60;;;20.60;99.90;;;;;;5047637;28;20466;-73
2022/08/10 05:12:55;;;;;;;5.10;3.97;;;21.60;99.90;;;;;;5060168;28;20496;-73
2022/08/10 05:15:28;;;;;;;6.80;4.00;;;22.60;99.90;;;;;;5062448;28;20453;-75
2022/08/10 05:17:55;;;;;;;3.70;3.23;;;23.70;99.90;;;;;;5043498;28;20525;-78
2022/08/10 05:20:24;;;;;;;4.90;3.90;;;24.60;99.90;;;;;;5042365;28;20572;-75
2022/08/10 05:22:51;;;;;;;4.50;4.03;;;25.40;98.00;;;;;;5042641;28;20505;-75
2022/08/10 05:25:19;;;;;;;4.77;3.77;;;26.10;95.90;;;;;;5044689;28;20530;-75
2022/08/10 05:27:47;;;;;;;4.20;3.90;;;26.70;93.60;;;;;;5040114;28;20473;-75
2022/08/10 05:30:18;;;;;;;7.10;3.70;;;26.90;92.50;;;;;;5052038;28;20435;-74
2022/08/10 05:32:46;;;;;;;8.20;4.10;;;27.20;91.90;;;;;;5042162;28;20489;-76
2022/08/10 05:35:13;;;;;;;4.23;2.87;;;27.90;90.60;;;;;;5039391;28;20489;-76
2022/08/10 05:37:42;;;;;;;7.10;3.87;;;28.20;89.80;;;;;;5042867;28;20458;-75
2022/08/10 05:40:09;;;;;;;4.23;3.83;;;27.90;88.00;;;;;;5045088;28;20576;-75
2022/08/10 05:42:36;;;;;;;3.80;3.50;;;27.50;89.30;;;;;;5048178;28;20505;-75
2022/08/10 05:45:04;;;;;;;4.70;4.07;;;27.60;89.90;;;;;;5051764;28;20547;-76
2022/08/10 05:47:32;;;;;;;3.60;3.00;;;28.10;88.40;;;;;;5051965;28;20521;-75
2022/08/10 05:49:59;;;;;;;4.00;3.60;;;28.60;87.00;;;;;;5050595;28;20451;-74
2022/08/10 05:52:26;;;;;;;15.27;5.20;;;29.10;84.40;;;;;;5055149;28;20441;-74
2022/08/10 05:54:54;;;;;;;4.50;4.10;;;29.50;83.40;;;;;;5046350;28;20494;-74
2022/08/10 05:57:22;;;;;;;8.43;3.33;;;29.90;82.20;;;;;;5053014;28;20474;-75
2022/08/10 05:59:58;;;;;;;4.83;3.80;;;30.10;80.90;;;;;;5048028;28;20446;-76
2022/08/10 06:02:30;;;;;;;6.00;3.80;;;30.20;80.00;;;;;;5043135;28;20455;-76
2022/08/10 06:05:00;;;;;;;4.97;3.20;;;30.50;79.10;;;;;;5039484;28;20463;-74
2022/08/10 06:07:30;;;;;;;6.00;3.73;;;30.90;78.10;;;;;;5046458;28;20493;-77
2022/08/10 06:09:59;;;;;;;4.43;4.00;;;31.20;77.20;;;;;;5047561;28;20855;-75
2022/08/10 06:12:27;;;;;;;7.90;3.60;;;31.20;76.60;;;;;;5045210;28;20568;-76
2022/08/10 06:15:02;;;;;;;2.87;2.57;;;31.20;75.90;;;;;;5049110;28;20453;-76
2022/08/10 06:17:29;;;;;;;3.57;2.83;;;31.30;75.90;;;;;;5044016;28;20477;-76
2022/08/10 06:19:57;;;;;;;8.63;3.80;;;31.60;74.80;;;;;;5045292;28;20553;-75
2022/08/10 06:22:25;;;;;;;4.47;3.40;;;31.40;74.50;;;;;;5045038;28;20458;-76
2022/08/10 06:24:53;;;;;;;3.43;3.13;;;31.60;73.90;;;;;;5049417;28;20546;-76
2022/08/10 06:27:21;;;;;;;5.93;4.30;;;31.50;73.90;;;;;;5048030;28;20517;-75
2022/08/10 06:29:50;;;;;;;4.77;3.00;;;31.90;73.30;;;;;;5046368;28;20446;-76
2022/08/10 06:32:18;;;;;;;4.40;3.00;;;31.70;73.00;;;;;;5045103;28;20516;-76
2022/08/10 06:34:49;;;;;;;4.10;3.20;;;31.50;73.60;;;;;;5052048;28;20863;-75
2022/08/10 06:37:19;;;;;;;4.20;2.90;;;32.10;72.90;;;;;;5054123;28;20441;-77
2022/08/10 06:39:47;;;;;;;5.87;3.30;;;32.60;71.20;;;;;;5043387;28;20458;-75
2022/08/10 06:42:16;;;;;;;5.43;4.90;;;32.90;70.60;;;;;;5041717;28;20479;-76
2022/08/10 06:44:51;;;;;;;5.30;3.30;;;32.90;70.20;;;;;;5049726;28;20805;-75
2022/08/10 06:47:20;;;;;;;3.53;2.60;;;33.20;69.60;;;;;;5050289;28;20543;-76
2022/08/10 06:49:51;;;;;;;4.50;2.40;;;33.70;68.30;;;;;;5052176;28;20446;-76
2022/08/10 06:52:20;;;;;;;2.90;2.70;;;33.60;67.30;;;;;;5053547;28;20535;-77
2022/08/10 06:54:48;;;;;;;2.93;2.40;;;33.70;66.70;;;;;;5052295;28;20518;-75
2022/08/10 06:57:15;;;;;;;3.70;2.50;;;34.10;66.40;;;;;;5043277;28;20443;-74
2022/08/10 06:59:47;;;;;;;4.20;2.70;;;34.20;65.90;;;;;;5047923;28;20466;-75
2022/08/10 07:02:18;;;;;;;3.70;2.37;;;34.20;65.90;;;;;;5047837;28;20471;-78
2022/08/10 07:04:49;;;;;;;4.60;3.20;;;34.20;65.00;;;;;;5055618;28;20482;-75
2022/08/10 07:07:22;;;;;;;4.83;2.57;;;34.20;64.70;;;;;;5056895;28;20473;-77
2022/08/10 07:09:51;;;;;;;4.27;2.57;;;34.50;64.40;;;;;;5043030;28;20446;-75
2022/08/10 07:12:21;;;;;;;5.27;3.00;;;33.90;64.60;;;;;;5044753;28;20471;-73
2022/08/10 07:14:51;;;;;;;3.47;2.70;;;34.20;63.50;;;;;;5049351;28;20997;-74
2022/08/10 07:17:20;;;;;;;5.30;3.07;;;34.40;63.70;;;;;;5051872;28;20537;-76
2022/08/10 07:19:51;;;;;;;7.03;3.20;;;34.80;63.10;;;;;;5048575;28;20492;-77
2022/08/10 07:22:21;;;;;;;3.30;2.50;;;34.90;62.30;;;;;;5042764;28;20467;-78
2022/08/10 07:24:50;;;;;;;2.97;2.20;;;35.30;61.80;;;;;;5040780;28;20439;-78
2022/08/10 07:27:19;;;;;;;5.23;3.00;;;36.20;60.00;;;;;;5043407;28;20786;-77
2022/08/10 07:29:47;;;;;;;3.53;2.90;;;36.00;59.90;;;;;;5038164;28;20589;-77
2022/08/10 07:32:16;;;;;;;6.43;3.30;;;35.50;60.30;;;;;;5038404;28;20463;-77
2022/08/10 07:34:46;;;;;;;3.70;2.60;;;36.10;59.20;;;;;;5047423;28;20477;-77
2022/08/10 07:37:16;;;;;;;4.70;2.80;;;36.40;58.60;;;;;;5033779;28;20526;-77
2022/08/10 07:39:47;;;;;;;8.43;3.40;;;36.20;58.70;;;;;;5042057;28;20903;-76
2022/08/10 07:42:16;;;;;;;10.80;3.70;;;35.80;59.00;;;;;;5043802;28;21118;-76
2022/08/10 07:44:46;;;;;;;9.60;2.80;;;36.20;59.10;;;;;;5042083;28;20530;-77
2022/08/10 07:47:19;;;;;;;4.10;2.93;;;35.40;58.20;;;;;;5042536;28;20449;-76
2022/08/10 07:49:51;;;;;;;6.93;3.03;;;35.50;59.20;;;;;;5038458;28;20449;-76
2022/08/10 07:52:19;;;;;;;3.80;2.50;;;35.90;59.40;;;;;;5036839;28;20445;-76
2022/08/10 07:54:52;;;;;;;3.73;2.07;;;36.10;57.90;;;;;;5041050;28;20507;-76
2022/08/10 07:57:24;;;;;;;8.40;4.10;;;35.20;58.00;;;;;;5042298;28;20457;-74
2022/08/10 07:59:56;;;;;;;3.87;2.87;;;35.80;58.70;;;;;;5051613;28;20458;-75
2022/08/10 08:02:30;;;;;;;3.67;2.30;;;35.60;57.80;;;;;;5041824;28;20988;-75
2022/08/10 08:05:02;;;;;;;5.20;2.80;;;35.70;57.60;;;;;;5036266;28;20466;-76
2022/08/10 08:07:31;;;;;;;5.10;3.07;;;36.10;58.00;;;;;;5047163;28;20445;-81
2022/08/10 08:10:03;;;;;;;3.50;2.20;;;36.80;56.90;;;;;;5046711;28;20478;-80
2022/08/10 08:12:32;;;;;;;7.97;2.93;;;36.70;56.10;;;;;;5046437;28;20438;-75
2022/08/10 08:15:00;;;;;;;2.13;1.93;;;37.10;55.40;;;;;;5039566;28;20428;-77
2022/08/10 08:17:30;;;;;;;2.80;1.93;;;36.40;56.10;;;;;;5036557;28;20877;-78
2022/08/10 08:19:59;;;;;;;4.23;2.47;;;36.30;57.00;;;;;;5041490;28;20888;-75
2022/08/10 08:22:28;;;;;;;3.77;2.60;;;37.00;56.30;;;;;;5041801;28;20485;-75
2022/08/10 08:24:56;;;;;;;2.70;2.30;;;37.70;55.10;;;;;;5044150;28;20438;-76
2022/08/10 08:27:25;;;;;;;6.90;3.00;;;38.00;53.70;;;;;;5047619;28;20921;-76
2022/08/10 08:29:53;;;;;;;6.37;2.93;;;37.90;54.30;;;;;;5051317;28;20481;-76
2022/08/10 08:32:22;;;;;;;6.30;3.03;;;37.30;55.20;;;;;;5045842;28;20438;-76
2022/08/10 08:34:55;;;;;;;2.10;1.90;;;37.00;55.30;;;;;;5041677;28;20864;-76
2022/08/10 08:37:25;;;;;;;2.63;2.30;;;36.70;55.60;;;;;;5044895;28;20470;-76
2022/08/10 08:39:52;;;;;;;3.83;2.50;;;37.30;54.50;;;;;;5044243;28;20496;-76
2022/08/10 08:42:38;;;;;;;7.33;3.40;;;37.50;54.20;;;;;;5047304;28;20471;-76
2022/08/10 08:45:15;;;;;;;4.33;2.70;;;37.50;54.00;;;;;;5044194;28;20442;-76
2022/08/10 08:48:36;;;;;;;6.53;2.90;;;38.00;53.10;;;;;;5041858;28;20970;-74
2022/08/10 08:51:17;;;;;;;6.07;2.63;;;38.30;52.90;;;;;;4971442;28;20543;-75
2022/08/10 08:53:58;;;;;;;3.70;2.97;;;38.00;52.90;;;;;;4984908;28;21001;-75
2022/08/10 08:56:30;;;;;;;4.80;2.93;;;37.70;52.00;;;;;;5028569;28;20450;-76
2022/08/10 08:59:25;;;;;;;3.97;2.50;;;37.50;52.90;;;;;;5070471;28;20470;-76
2022/08/10 09:02:06;;;;;;;2.03;1.80;;;37.90;52.50;;;;;;5057291;28;20466;-74
2022/08/10 09:04:47;;;;;;;4.30;2.17;;;38.10;51.50;;;;;;5049127;28;20844;-75
2022/08/10 09:07:42;;;;;;;6.20;2.50;;;38.90;50.00;;;;;;5039670;28;20549;-75
2022/08/10 09:10:19;;;;;;;3.20;2.30;;;39.10;50.00;;;;;;5042274;28;20453;-75
2022/08/10 09:12:52;;;;;;;4.40;2.80;;;38.60;50.40;;;;;;5043460;28;20973;-74
2022/08/10 09:15:28;;;;;;;4.17;1.90;;;38.60;50.00;;;;;;5044313;28;20470;-76
2022/08/10 09:18:05;;;;;;;3.70;2.20;;;39.30;49.50;;;;;;5048196;28;20548;-74
2022/08/10 09:20:39;;;;;;;2.70;1.93;;;39.40;49.20;;;;;;5049059;28;20455;-74
2022/08/10 09:23:17;;;;;;;5.33;2.60;;;39.00;49.40;;;;;;5042439;28;20839;-75
2022/08/10 09:25:52;;;;;;;2.10;1.90;;;38.60;49.30;;;;;;5041744;28;20474;-77
2022/08/10 09:28:24;;;;;;;3.20;1.90;;;38.20;49.40;;;;;;5047081;28;20812;-77
2022/08/10 09:30:58;;;;;;;3.50;2.27;;;38.00;49.40;;;;;;5052149;28;20542;-74
2022/08/10 09:33:37;;;;;;;3.03;2.07;;;37.60;49.80;;;;;;5051358;28;20474;-77
2022/08/10 09:36:15;;;;;;;3.20;1.90;;;37.80;49.70;;;;;;5040291;28;20471;-75
2022/08/10 09:38:53;;;;;;;4.50;2.30;;;37.30;49.60;;;;;;5038489;28;20525;-76
2022/08/10 09:41:32;;;;;;;3.23;2.33;;;36.60;49.50;;;;;;5041329;28;20492;-77
2022/08/10 09:44:11;;;;;;;5.47;2.17;;;36.50;51.60;;;;;;5049371;28;20523;-76
2022/08/10 09:47:13;;;;;;;3.73;2.60;;;36.40;51.80;;;;;;5050320;28;20504;-76
2022/08/10 09:49:52;;;;;;;2.20;2.00;;;36.30;52.00;;;;;;5027350;28;20454;-75
2022/08/10 09:52:30;;;;;;;1.77;1.60;;;36.00;52.50;;;;;;5049317;28;20853;-75
2022/08/10 09:55:11;;;;;;;2.70;2.20;;;36.50;52.50;;;;;;5043600;28;20466;-77
2022/08/10 09:57:49;;;;;;;11.57;4.97;;;36.40;51.60;;;;;;5055164;28;20537;-75
2022/08/10 10:00:21;;;;;;;17.53;3.67;;;35.90;52.90;;;;;;5047049;28;20434;-76
2022/08/10 10:03:00;;;;;;;9.07;6.07;;;36.00;52.20;;;;;;5051905;28;20490;-76
2022/08/10 10:05:40;;;;;;;4.50;3.20;;;35.80;53.10;;;;;;5052568;28;20468;-75
2022/08/10 10:08:12;;;;;;;7.37;2.50;;;36.20;53.00;;;;;;5046572;28;20542;-73
2022/08/10 10:10:52;;;;;;;2.03;1.83;;;36.40;51.90;;;;;;5048598;28;20434;-76
2022/08/10 10:13:26;;;;;;;7.30;2.17;;;36.60;49.00;;;;;;5036214;28;20550;-78
2022/08/10 10:16:03;;;;;;;2.80;2.10;;;35.40;49.50;;;;;;5048332;28;20832;-77
2022/08/10 10:18:41;;;;;;;5.80;2.37;;;35.30;51.90;;;;;;5041169;28;20517;-76
2022/08/10 10:21:15;;;;;;;4.20;1.80;;;35.60;52.00;;;;;;5043515;28;20451;-76
2022/08/10 10:23:51;;;;;;;3.33;3.03;;;35.80;52.10;;;;;;5044904;28;20842;-77
2022/08/10 10:26:30;;;;;;;6.03;2.27;;;36.50;51.80;;;;;;5042760;28;20445;-76
2022/08/10 10:29:13;;;;;;;5.13;1.77;;;36.80;50.60;;;;;;5041154;28;20473;-77
2022/08/10 10:31:45;;;;;;;2.13;1.93;;;36.50;50.10;;;;;;5048326;28;20835;-77
2022/08/10 10:34:17;;;;;;;5.50;2.10;;;35.90;50.10;;;;;;5052641;28;20474;-76
2022/08/10 10:36:46;;;;;;;3.30;2.60;;;35.50;51.10;;;;;;5044017;28;20514;-76
2022/08/10 10:39:15;;;;;;;3.97;2.50;;;35.40;51.60;;;;;;5051448;28;20454;-76
2022/08/10 10:41:51;;;;;;;3.40;3.07;;;35.10;52.20;;;;;;5050688;28;21015;-76
2022/08/10 10:44:32;;;;;;;2.73;1.83;;;34.80;53.30;;;;;;5047816;28;20998;-77
2022/08/10 10:47:28;;;;;;;4.77;2.10;;;34.20;53.50;;;;;;5049529;28;20470;-78
2022/08/10 10:50:05;;;;;;;3.00;2.00;;;33.80;54.30;;;;;;5047523;28;20929;-75
2022/08/10 10:52:42;;;;;;;3.27;2.30;;;33.40;54.90;;;;;;5050756;28;20442;-78
2022/08/10 10:55:16;;;;;;;5.10;2.43;;;33.10;55.00;;;;;;5043979;28;20840;-76
2022/08/10 10:57:58;;;;;;;2.60;1.90;;;32.60;53.90;;;;;;5041818;28;20448;-77
2022/08/10 11:00:29;;;;;;;3.53;2.23;;;31.70;53.60;;;;;;5068132;28;20481;-76
2022/08/10 11:03:21;;;;;;;3.70;2.10;;;31.40;55.80;;;;;;5054970;28;20494;-77
2022/08/10 11:06:08;;;;;;;4.03;2.20;;;31.20;56.80;;;;;;5041170;28;20458;-78
2022/08/10 11:08:40;;;;;;;4.13;2.67;;;31.00;57.50;;;;;;5043507;28;20450;-76
2022/08/10 11:11:11;;;;;;;4.23;2.23;;;30.80;59.00;;;;;;5043631;28;20466;-78
2022/08/10 11:13:47;;;;;;;4.50;2.40;;;30.50;58.40;;;;;;5051305;28;20493;-77
2022/08/10 11:16:20;;;;;;;3.00;1.60;;;30.40;58.80;;;;;;5047899;28;20482;-75
2022/08/10 11:18:57;;;;;;;2.30;2.03;;;30.50;58.50;;;;;;5050978;28;20443;-75
2022/08/10 11:21:35;;;;;;;3.03;2.03;;;30.70;57.90;;;;;;5050621;28;20524;-78
2022/08/10 11:24:09;;;;;;;2.87;1.90;;;30.60;57.40;;;;;;5042293;28;20465;-78
2022/08/10 11:26:42;;;;;;;3.40;1.90;;;30.40;57.60;;;;;;5044772;28;20450;-75
2022/08/10 11:29:20;;;;;;;5.60;2.57;;;30.00;56.50;;;;;;5039915;28;20431;-77
2022/08/10 11:31:53;;;;;;;2.47;1.50;;;29.70;57.40;;;;;;5041505;28;20501;-77
2022/08/10 11:34:27;;;;;;;2.30;1.73;;;29.40;56.50;;;;;;5044121;28;20934;-75
2022/08/10 11:37:05;;;;;;;2.70;2.20;;;29.40;56.10;;;;;;5050748;28;20480;-79
2022/08/10 11:39:43;;;;;;;4.30;2.07;;;29.30;56.60;;;;;;5047182;28;20455;-77
2022/08/10 11:42:20;;;;;;;3.43;2.53;;;29.30;56.40;;;;;;5042642;28;20474;-76
2022/08/10 11:44:54;;;;;;;2.27;1.77;;;28.90;56.50;;;;;;5043202;28;20466;-76
2022/08/10 11:47:26;;;;;;;2.53;2.07;;;28.80;57.70;;;;;;5048915;28;20873;-77
2022/08/10 11:49:58;;;;;;;2.90;1.80;;;28.90;58.10;;;;;;5042936;28;20534;-76
2022/08/10 11:52:34;;;;;;;4.10;1.97;;;29.10;58.30;;;;;;5052379;28;20442;-75
2022/08/10 11:55:09;;;;;;;2.77;1.80;;;29.40;59.20;;;;;;5057494;28;20469;-75
2022/08/10 11:57:37;;;;;;;6.47;1.77;;;29.40;59.20;;;;;;5058325;28;20437;-77
2022/08/10 12:00:07;;;;;;;2.70;1.77;;;29.40;58.30;;;;;;5055418;28;20441;-78
2022/08/10 12:02:41;;;;;;;2.43;1.77;;;29.50;57.80;;;;;;5051498;28;20470;-77
2022/08/10 12:05:15;;;;;;;3.00;2.13;;;29.60;58.00;;;;;;5047654;28;20455;-79
2022/08/10 12:07:44;;;;;;;3.50;1.77;;;29.70;57.60;;;;;;5046075;28;20513;-75
2022/08/10 12:10:14;;;;;;;1.97;1.60;;;29.60;58.60;;;;;;5041773;28;20478;-79
2022/08/10 12:12:47;;;;;;;3.53;2.00;;;29.60;59.00;;;;;;5055552;28;20457;-78
2022/08/10 12:15:24;;;;;;;2.50;1.70;;;29.50;59.30;;;;;;5058829;28;20477;-78
2022/08/10 12:17:55;;;;;;;3.90;1.60;;;29.30;58.10;;;;;;5045117;28;20445;-78
2022/08/10 12:20:28;;;;;;;2.83;1.50;;;29.20;58.30;;;;;;5053234;28;20426;-75
2022/08/10 12:23:00;;;;;;;1.73;1.63;;;29.10;58.20;;;;;;5047799;28;21061;-78
2022/08/10 12:25:35;;;;;;;4.27;2.20;;;29.20;58.40;;;;;;5049631;28;20453;-80
2022/08/10 12:28:10;;;;;;;3.83;2.00;;;29.10;58.30;;;;;;5041744;28;20457;-79
2022/08/10 12:30:46;;;;;;;5.50;1.87;;;29.00;57.90;;;;;;5048768;28;20455;-78
2022/08/10 12:33:21;;;;;;;3.93;1.80;;;29.20;58.50;;;;;;5044856;28;20461;-78
2022/08/10 12:35:52;;;;;;;2.77;2.20;;;29.30;58.40;;;;;;5048501;28;20441;-77
2022/08/10 12:38:25;;;;;;;4.60;1.70;;;29.40;56.80;;;;;;5047692;28;20518;-79
2022/08/10 12:40:56;;;;;;;3.53;1.70;;;29.60;56.80;;;;;;5052380;28;20537;-77
2022/08/10 12:43:28;;;;;;;3.90;2.30;;;29.60;58.20;;;;;;5055476;28;20564;-79
2022/08/10 12:46:02;;;;;;;3.47;2.30;;;29.60;59.10;;;;;;5061915;28;20440;-78
2022/08/10 12:48:35;;;;;;;3.20;1.60;;;29.70;57.70;;;;;;5048756;28;20529;-79
2022/08/10 12:51:10;;;;;;;3.00;2.00;;;29.70;57.20;;;;;;5052170;28;20452;-77
2022/08/10 12:53:47;;;;;;;3.30;2.47;;;29.80;56.70;;;;;;5045403;28;20545;-77
2022/08/10 12:56:21;;;;;;;2.63;2.07;;;29.50;57.80;;;;;;5051253;28;20438;-77
2022/08/10 12:58:48;;;;;;;2.23;2.03;;;29.60;58.10;;;;;;5049382;28;20450;-79
2022/08/10 13:01:18;;;;;;;3.17;2.50;;;29.60;58.60;;;;;;5054615;28;20456;-76
2022/08/10 13:03:48;;;;;;;3.33;2.20;;;29.50;58.50;;;;;;5056473;28;20488;-79
2022/08/10 13:06:16;;;;;;;3.67;2.07;;;29.40;59.00;;;;;;5065645;28;20465;-78
2022/08/10 13:11:31;;;;;;;2.00;1.80;;;29.10;58.80;;;;;;5059509;28;20449;-76
2022/08/10 13:14:03;;;;;;;2.93;1.90;;;29.10;59.40;;;;;;5061318;28;20462;-76